createdAt,value
2019-05-07T00:04:37.783Z,5.55
2019-05-07T00:09:45.441Z,6.49
2019-05-07T00:25:12.356Z,6.40
2019-05-07T00:30:12.712Z,6.32
2019-05-07T00:35:14.726Z,6.82
2019-05-07T00:40:18.598Z,6.46
2019-05-07T00:45:17.048Z,6.47
2019-05-07T00:50:14.334Z,6.31
2019-05-07T00:55:22.810Z,6.79
2019-05-07T01:00:30.119Z,7.11
2019-05-07T01:05:39.493Z,7.11
2019-05-07T01:10:47.021Z,6.68
2019-05-07T01:15:54.294Z,7.51
2019-05-07T01:21:02.419Z,7.04
2019-05-07T01:26:12.281Z,6.83
2019-05-07T01:31:17.607Z,6.05
2019-05-07T01:36:25.835Z,6.36
2019-05-07T01:41:34.380Z,6.29
2019-05-07T01:46:54.413Z,7.04
2019-05-07T01:51:42.807Z,6.78
2019-05-07T01:56:52.154Z,8.25
2019-05-07T02:01:58.582Z,7.06
2019-05-07T02:07:18.800Z,7.59
2019-05-07T02:12:06.104Z,8.32
2019-05-07T02:17:27.284Z,8.19
2019-05-07T02:22:14.613Z,7.78
2019-05-07T02:27:22.187Z,7.60
2019-05-07T02:32:43.370Z,7.96
2019-05-07T02:37:37.611Z,9.35
2019-05-07T02:42:49.867Z,9.44
2019-05-07T02:47:37.223Z,9.48
2019-05-07T02:52:44.515Z,8.99
2019-05-07T02:57:54.019Z,9.13
2019-05-07T03:03:00.131Z,8.92
2019-05-07T03:08:08.338Z,9.62
2019-05-07T03:13:17.123Z,9.29
2019-05-07T03:18:25.405Z,10.24
2019-05-07T03:23:34.086Z,9.38
2019-05-07T03:28:42.759Z,9.37
2019-05-07T03:33:48.151Z,9.90
2019-05-07T03:38:56.540Z,9.63
2019-05-07T03:44:04.149Z,9.02
2019-05-07T03:49:13.663Z,10.55
2019-05-07T03:54:19.738Z,10.80
2019-05-07T03:59:27.981Z,10.24
2019-05-07T04:04:35.596Z,10.63
2019-05-07T04:09:43.730Z,11.08
2019-05-07T04:14:53.241Z,12.55
2019-05-07T04:20:13.464Z,12.67
2019-05-07T04:25:00.156Z,12.79
2019-05-07T04:30:12.892Z,12.17
2019-05-07T04:34:58.738Z,13.65
2019-05-07T04:40:19.827Z,12.94
2019-05-07T04:45:09.472Z,13.39
2019-05-07T04:50:41.432Z,14.84
2019-05-07T04:55:33.422Z,13.29
2019-05-07T05:00:18.499Z,12.77
2019-05-07T05:05:27.778Z,13.04
2019-05-07T05:10:48.024Z,12.96
2019-05-07T05:15:48.241Z,13.64
2019-05-07T05:20:35.473Z,12.23
2019-05-07T05:25:44.098Z,11.68
2019-05-07T05:30:52.852Z,12.57
2019-05-07T05:36:00.102Z,12.07
2019-05-07T05:41:22.474Z,12.52
2019-05-07T05:46:22.658Z,14.25
2019-05-07T05:51:08.273Z,13.68
2019-05-07T05:56:18.592Z,13.07
2019-05-07T06:06:23.787Z,12.24
2019-05-07T06:11:32.303Z,12.52
2019-05-07T06:16:52.687Z,11.50
2019-05-07T06:21:41.891Z,10.85
2019-05-07T06:27:00.161Z,10.42
2019-05-07T06:32:02.488Z,10.13
2019-05-07T06:37:02.318Z,9.95
2019-05-07T06:41:48.072Z,9.29
2019-05-07T06:47:08.335Z,10.60
2019-05-07T06:51:56.465Z,9.98
2019-05-07T06:57:17.697Z,10.68
2019-05-07T07:07:22.453Z,9.08
2019-05-07T07:12:29.358Z,8.49
2019-05-07T07:17:17.820Z,8.39
2019-05-07T07:22:25.951Z,8.42
2019-05-07T07:27:46.958Z,7.75
2019-05-07T07:32:35.195Z,7.96
2019-05-07T07:37:43.646Z,7.61
2019-05-07T07:43:07.019Z,5.99
2019-05-07T07:47:53.035Z,6.21
2019-05-07T07:52:59.802Z,5.33
2019-05-07T07:58:07.916Z,5.16
2019-05-07T08:03:16.319Z,5.09
2019-05-07T08:08:37.657Z,4.87
2019-05-07T08:13:37.982Z,4.49
2019-05-07T08:18:38.465Z,4.64
2019-05-07T08:23:38.610Z,4.72
2019-05-07T08:28:26.037Z,5.16
2019-05-07T08:33:33.226Z,5.12
2019-05-07T08:38:54.791Z,4.80
2019-05-07T08:44:08.260Z,4.66
2019-05-07T08:53:56.686Z,4.13
2019-05-07T08:58:46.270Z,4.22
2019-05-07T09:04:06.442Z,4.33
2019-05-07T09:09:07.554Z,4.04
2019-05-07T09:14:08.616Z,4.37
2019-05-07T09:19:09.998Z,3.86
2019-05-07T09:24:12.225Z,4.48
2019-05-07T09:28:57.624Z,4.56
2019-05-07T09:34:04.960Z,4.68
2019-05-07T09:39:12.246Z,4.39
2019-05-07T09:44:19.460Z,4.61
2019-05-07T09:49:27.750Z,3.97
2019-05-07T09:54:48.765Z,4.34
2019-05-07T09:59:36.109Z,4.15
2019-05-07T10:04:57.427Z,4.91
2019-05-07T10:09:44.909Z,4.33
2019-05-07T10:14:52.354Z,4.73
2019-05-07T10:20:21.565Z,4.27
2019-05-07T10:24:59.836Z,3.99
2019-05-07T10:35:09.567Z,4.08
2019-05-07T10:40:29.712Z,4.34
2019-05-07T10:45:18.120Z,3.88
2019-05-07T10:50:39.300Z,4.29
2019-05-07T10:55:45.504Z,4.45
2019-05-07T11:00:43.386Z,4.00
2019-05-07T11:05:32.410Z,4.49
2019-05-07T11:10:38.080Z,4.22
2019-05-07T11:20:54.076Z,4.30
2019-05-07T11:26:14.265Z,4.30
2019-05-07T11:31:02.040Z,4.50
2019-05-07T11:36:08.884Z,4.21
2019-05-07T11:41:17.052Z,4.54
2019-05-07T11:46:25.452Z,4.33
2019-05-07T11:51:45.854Z,3.96
2019-05-07T11:56:33.077Z,3.68
2019-05-07T12:01:54.240Z,4.31
2019-05-07T12:17:06.221Z,3.48
2019-05-07T12:21:53.838Z,3.95
2019-05-07T12:27:14.875Z,3.26
2019-05-07T12:32:17.216Z,3.22
2019-05-07T12:37:17.360Z,2.99
2019-05-07T12:42:18.511Z,2.94
2019-05-07T12:47:06.794Z,3.33
2019-05-07T12:52:27.299Z,4.33
2019-05-07T12:57:27.462Z,3.09
2019-05-07T13:02:33.882Z,3.58
2019-05-07T13:07:37.382Z,3.08
2019-05-07T13:12:37.700Z,3.10
2019-05-07T13:17:24.958Z,3.70
2019-05-07T13:22:33.464Z,3.14
2019-05-07T13:27:53.613Z,3.19
2019-05-07T13:32:55.082Z,2.90
2019-05-07T13:37:42.290Z,2.98
2019-05-07T13:43:04.657Z,3.06
2019-05-07T13:48:04.940Z,2.99
2019-05-07T13:53:05.248Z,3.14
2019-05-07T13:58:05.539Z,2.75
2019-05-07T14:03:05.840Z,3.59
2019-05-07T14:08:06.001Z,3.35
2019-05-07T14:18:11.601Z,3.14
2019-05-07T14:28:18.727Z,3.23
2019-05-07T14:33:06.195Z,3.21
2019-05-07T14:43:27.399Z,3.34
2019-05-07T14:48:27.602Z,3.24
2019-05-07T14:53:29.032Z,3.54
2019-05-07T15:03:20.360Z,3.40
2019-05-07T15:13:32.796Z,3.31
2019-05-07T15:18:42.272Z,3.92
2019-05-07T15:29:01.727Z,3.99
2019-05-07T15:34:03.045Z,4.27
2019-05-07T15:54:14.975Z,4.33
2019-05-07T15:59:05.352Z,4.32
2019-05-07T16:04:26.048Z,4.08
2019-05-07T16:09:26.935Z,4.94
2019-05-07T16:14:27.332Z,4.13
2019-05-07T16:19:27.557Z,4.27
2019-05-07T16:24:15.053Z,4.48
2019-05-07T16:29:25.551Z,4.39
2019-05-07T16:34:33.342Z,5.00
2019-05-07T16:39:53.683Z,5.82
2019-05-07T16:44:53.895Z,6.00
2019-05-07T16:49:54.106Z,6.72
2019-05-07T16:54:42.639Z,7.47
2019-05-07T16:59:48.754Z,9.32
2019-05-07T17:05:12.155Z,9.42
2019-05-07T17:09:57.255Z,9.87
2019-05-07T17:15:18.588Z,9.44
2019-05-07T17:20:21.860Z,9.82
2019-05-07T17:25:20.008Z,8.44
2019-05-07T17:30:11.738Z,10.04
2019-05-07T17:35:22.321Z,10.24
2019-05-07T17:40:07.954Z,8.95
2019-05-07T17:45:28.349Z,8.75
2019-05-07T17:50:15.577Z,7.67
2019-05-07T17:55:36.536Z,7.84
2019-05-07T18:00:37.670Z,7.74
2019-05-07T18:05:25.970Z,7.35
2019-05-07T18:10:35.168Z,8.10
2019-05-07T18:15:56.409Z,6.88
2019-05-07T18:20:43.687Z,7.89
2019-05-07T18:26:04.131Z,6.62
2019-05-07T18:35:52.717Z,7.65
2019-05-07T18:46:03.305Z,6.19
2019-05-07T18:51:12.124Z,5.91
2019-05-07T18:56:32.137Z,6.59
2019-05-07T19:01:19.813Z,6.25
2019-05-07T19:06:42.268Z,5.72
2019-05-07T19:11:27.291Z,5.98
2019-05-07T19:16:35.654Z,6.21
2019-05-07T19:21:55.882Z,6.89
2019-05-07T19:26:43.298Z,6.57
2019-05-07T19:31:52.373Z,6.07
2019-05-07T19:36:57.734Z,5.59
2019-05-07T19:42:06.006Z,7.42
2019-05-07T19:47:13.222Z,8.86
2019-05-07T19:52:23.127Z,10.18
2019-05-07T19:57:29.051Z,9.56
2019-05-07T20:02:52.568Z,10.58
2019-05-07T20:07:38.059Z,12.39
2019-05-07T20:12:58.181Z,12.47
2019-05-07T20:22:51.823Z,12.08
2019-05-07T20:27:58.153Z,12.78
2019-05-07T20:38:10.111Z,13.09
2019-05-07T20:43:33.035Z,12.68
2019-05-07T20:48:22.500Z,12.86
2019-05-07T20:53:28.447Z,11.76
2019-05-07T20:58:35.168Z,11.64
2019-05-07T21:03:44.163Z,11.61
2019-05-07T21:09:04.394Z,12.42
2019-05-07T21:13:52.678Z,10.34
2019-05-07T21:29:09.582Z,7.75
2019-05-07T21:34:31.866Z,8.38
2019-05-07T21:39:19.070Z,9.15
2019-05-07T21:44:40.248Z,10.17
2019-05-07T21:49:42.855Z,11.69
2019-05-07T21:54:27.891Z,12.41
2019-05-07T21:59:36.437Z,12.95
2019-05-07T22:04:44.555Z,15.11
2019-05-07T22:09:52.333Z,15.25
2019-05-07T22:15:12.871Z,16.72
2019-05-07T22:19:59.684Z,17.12
2019-05-07T22:30:23.194Z,16.51
2019-05-07T22:35:09.011Z,16.64
2019-05-07T22:40:32.034Z,15.48
2019-05-07T22:50:33.137Z,18.46
2019-05-07T22:55:19.338Z,18.13
2019-05-07T23:00:27.618Z,17.84
2019-05-07T23:05:48.761Z,18.74
2019-05-07T23:10:37.121Z,17.64
2019-05-07T23:15:58.244Z,18.11
2019-05-07T23:20:59.641Z,20.53
2019-05-07T23:25:47.128Z,19.17
2019-05-07T23:30:54.497Z,20.24
2019-05-07T23:36:02.711Z,20.64
2019-05-07T23:41:12.663Z,21.03
2019-05-07T23:46:31.327Z,22.89
2019-05-07T23:56:26.879Z,21.56
